Time;durP1;ratioP1;P1;durP2;ratioP2;P2;SDS_P1;SDS_P2;PMS_P1;PMS_P2;Temp;Humidity;BMP_temperature;BMP_pressure;BME280_temperature;BME280_humidity;BME280_pressure;Samples;Min_cycle;Max_cycle;Signal;HPM_P1;HPM_P2
2022/01/26 00:07:22;;;;;;;5.10;3.65;;;7.10;99.90;;;;;;4910296;29;20211;-66
2022/01/26 00:09:56;;;;;;;6.47;4.45;;;7.00;99.90;;;;;;4910297;29;20210;-65
2022/01/26 00:12:27;;;;;;;3.97;3.60;;;7.00;99.90;;;;;;4928661;29;20305;-65
2022/01/26 00:15:03;;;;;;;6.88;4.18;;;6.90;99.90;;;;;;4927379;29;20207;-65
2022/01/26 00:17:35;;;;;;;5.00;3.58;;;6.80;99.90;;;;;;4909677;29;20215;-66
2022/01/26 00:20:18;;;;;;;4.63;3.58;;;6.80;99.90;;;;;;4917361;29;20209;-67
2022/01/26 00:23:05;;;;;;;10.13;3.95;;;6.80;99.90;;;;;;4921366;29;20312;-66
2022/01/26 00:25:45;;;;;;;4.88;3.88;;;6.70;99.90;;;;;;4924150;29;20226;-67
2022/01/26 00:39:44;;;;;;;4.80;3.97;;;6.40;99.90;;;;;;4849959;29;20217;-67
2022/01/26 00:42:16;;;;;;;4.80;3.80;;;6.40;99.90;;;;;;4838050;29;20280;-66
2022/01/26 00:44:50;;;;;;;4.32;3.80;;;6.40;99.90;;;;;;4846406;29;20206;-63
2022/01/26 00:47:21;;;;;;;5.97;4.57;;;6.30;99.90;;;;;;4850446;29;20619;-66
2022/01/26 00:49:57;;;;;;;7.78;4.72;;;6.10;99.90;;;;;;4850084;29;20225;-63
2022/01/26 00:52:38;;;;;;;4.00;3.30;;;6.00;99.90;;;;;;4845767;29;20211;-65
2022/01/26 00:55:13;;;;;;;5.15;4.15;;;5.80;99.90;;;;;;4847672;29;20820;-66
2022/01/26 00:57:45;;;;;;;5.32;4.07;;;5.80;99.90;;;;;;4847828;29;20307;-65
2022/01/26 01:00:18;;;;;;;4.82;4.10;;;5.80;99.90;;;;;;4849062;29;20281;-66
2022/01/26 01:02:49;;;;;;;4.13;3.33;;;5.60;99.90;;;;;;4849690;29;20205;-62
2022/01/26 01:05:24;;;;;;;4.15;3.20;;;5.60;99.90;;;;;;4843945;29;20217;-63
2022/01/26 01:08:01;;;;;;;4.43;3.75;;;5.60;99.90;;;;;;4861457;29;20196;-64
2022/01/26 01:10:34;;;;;;;5.55;4.13;;;5.50;99.90;;;;;;4877259;29;20218;-63
2022/01/26 01:13:07;;;;;;;4.85;4.15;;;5.40;99.90;;;;;;4875203;29;20272;-62
2022/01/26 01:15:38;;;;;;;6.63;4.00;;;5.40;99.90;;;;;;4889482;29;20207;-65
2022/01/26 01:18:17;;;;;;;5.63;3.75;;;5.30;99.90;;;;;;4925769;29;20299;-65
2022/01/26 01:24:00;;;;;;;6.18;3.22;;;5.00;99.90;;;;;;4893174;29;20621;-64
2022/01/26 01:29:32;;;;;;;4.85;3.35;;;5.00;99.90;;;;;;4916864;29;20651;-65
2022/01/26 01:32:11;;;;;;;4.53;3.80;;;4.80;99.90;;;;;;4910272;29;20191;-65
2022/01/26 01:34:42;;;;;;;4.45;3.50;;;4.60;99.90;;;;;;4914682;29;20655;-65
2022/01/26 01:37:16;;;;;;;4.78;3.70;;;4.60;99.90;;;;;;4907498;29;20217;-66
2022/01/26 01:39:48;;;;;;;6.25;4.63;;;4.60;99.90;;;;;;4913325;29;20210;-64
2022/01/26 01:42:20;;;;;;;5.15;3.63;;;4.60;99.90;;;;;;4923182;29;20210;-66
2022/01/26 01:44:51;;;;;;;26.35;8.10;;;4.50;99.90;;;;;;4907383;29;20294;-65
2022/01/26 01:47:22;;;;;;;6.30;4.88;;;4.60;99.90;;;;;;4920024;29;20206;-65
2022/01/26 01:49:53;;;;;;;5.35;3.60;;;4.50;99.90;;;;;;4920229;29;20237;-65
2022/01/26 01:52:24;;;;;;;5.40;4.85;;;4.40;99.90;;;;;;4917429;29;20217;-64
2022/01/26 01:55:02;;;;;;;6.03;4.15;;;4.40;99.90;;;;;;4924954;29;20234;-67
2022/01/26 01:57:35;;;;;;;5.10;3.83;;;4.40;99.90;;;;;;4916254;29;20206;-63
2022/01/26 02:00:08;;;;;;;5.90;4.70;;;4.40;99.90;;;;;;4909080;29;20223;-62
2022/01/26 02:02:39;;;;;;;6.97;4.80;;;4.30;99.90;;;;;;4916501;29;20198;-62
2022/01/26 02:05:10;;;;;;;5.00;4.50;;;4.20;99.90;;;;;;4921867;29;20207;-62
2022/01/26 02:07:42;;;;;;;5.57;5.03;;;4.20;99.90;;;;;;4925325;29;20214;-62
2022/01/26 02:10:14;;;;;;;8.60;4.63;;;4.20;99.90;;;;;;4913961;29;20253;-63
2022/01/26 02:12:50;;;;;;;4.63;4.13;;;4.20;99.90;;;;;;4914176;29;20204;-63
2022/01/26 02:15:25;;;;;;;5.70;4.45;;;4.10;99.90;;;;;;4918953;29;20222;-63
2022/01/26 02:52:02;;;;;;;7.07;4.57;;;3.60;99.90;;;;;;4898502;29;20200;-66
2022/01/26 02:54:49;;;;;;;5.22;4.72;;;3.60;99.90;;;;;;4899303;29;20238;-63
2022/01/26 02:57:41;;;;;;;6.35;4.60;;;3.50;99.90;;;;;;4902025;29;20199;-63
2022/01/26 03:00:25;;;;;;;6.35;4.88;;;3.60;99.90;;;;;;4895020;29;20197;-73
2022/01/26 03:02:59;;;;;;;6.40;4.38;;;3.50;99.90;;;;;;4902314;29;20233;-68
2022/01/26 03:05:36;;;;;;;6.57;4.32;;;3.50;99.90;;;;;;4899013;29;20207;-69
2022/01/26 03:08:09;;;;;;;5.93;4.68;;;3.50;99.90;;;;;;4902677;29;20205;-65
2022/01/26 03:10:48;;;;;;;6.57;4.80;;;3.60;99.90;;;;;;4901852;29;20652;-64
2022/01/26 03:13:23;;;;;;;5.43;3.80;;;3.60;99.90;;;;;;4903727;29;20248;-63
2022/01/26 03:15:58;;;;;;;6.60;4.90;;;3.60;99.90;;;;;;4901513;29;20223;-63
2022/01/26 03:21:14;;;;;;;5.90;4.43;;;3.60;99.90;;;;;;4893256;29;20267;-64
2022/01/26 03:29:41;;;;;;;7.28;5.20;;;3.30;99.90;;;;;;4905228;29;20218;-62
2022/01/26 03:35:00;;;;;;;5.75;4.90;;;3.20;99.90;;;;;;4900917;29;20231;-62
2022/01/26 03:37:37;;;;;;;8.90;5.57;;;3.30;99.90;;;;;;4902282;29;20206;-63
2022/01/26 03:40:15;;;;;;;6.07;5.22;;;3.30;99.90;;;;;;4902806;29;20267;-63
2022/01/26 03:42:50;;;;;;;6.25;4.97;;;3.30;99.90;;;;;;4904284;29;20221;-62
2022/01/26 03:45:21;;;;;;;5.95;4.50;;;3.20;99.90;;;;;;4895409;29;20223;-62
2022/01/26 03:47:56;;;;;;;7.72;5.38;;;3.20;99.90;;;;;;4900209;29;20286;-63
2022/01/26 03:50:28;;;;;;;6.43;5.03;;;3.20;99.90;;;;;;4911289;29;20252;-64
2022/01/26 03:52:59;;;;;;;5.45;4.35;;;3.20;99.90;;;;;;4921735;29;20203;-62
2022/01/26 03:55:30;;;;;;;5.40;4.47;;;3.30;99.90;;;;;;4914827;29;20278;-62
2022/01/26 03:58:02;;;;;;;9.68;5.13;;;3.20;99.90;;;;;;4909935;29;20288;-63
2022/01/26 04:00:33;;;;;;;4.90;4.40;;;3.20;99.90;;;;;;4918314;29;20213;-63
2022/01/26 04:03:04;;;;;;;5.28;4.78;;;3.20;99.90;;;;;;4925792;29;20213;-62
2022/01/26 04:05:35;;;;;;;5.53;4.10;;;3.10;99.90;;;;;;4927476;29;20217;-62
2022/01/26 04:08:11;;;;;;;4.95;4.45;;;3.00;99.90;;;;;;4923482;29;20211;-62
2022/01/26 04:10:53;;;;;;;5.90;5.22;;;3.00;99.90;;;;;;4920419;29;20266;-63
2022/01/26 04:13:28;;;;;;;5.50;4.38;;;3.10;99.90;;;;;;4920295;29;20206;-62
2022/01/26 04:15:59;;;;;;;6.80;5.00;;;3.00;99.90;;;;;;4920466;29;20317;-64
2022/01/26 04:18:34;;;;;;;7.05;5.10;;;3.00;99.90;;;;;;4917944;29;20212;-62
2022/01/26 04:21:14;;;;;;;10.18;5.18;;;3.00;99.90;;;;;;4922360;29;20234;-63
2022/01/26 04:23:50;;;;;;;7.35;4.75;;;2.90;99.90;;;;;;4922170;29;20213;-64
2022/01/26 04:26:26;;;;;;;6.65;4.50;;;2.80;99.90;;;;;;4918662;29;20242;-63
2022/01/26 04:29:02;;;;;;;6.68;4.70;;;2.80;99.90;;;;;;4920283;29;20198;-62
2022/01/26 04:31:33;;;;;;;5.68;4.22;;;2.80;99.90;;;;;;4921701;29;20278;-61
2022/01/26 04:34:04;;;;;;;5.13;4.57;;;2.80;99.90;;;;;;4927503;29;20211;-61
2022/01/26 04:36:40;;;;;;;6.00;5.05;;;2.80;99.90;;;;;;4920600;29;20207;-61
2022/01/26 04:39:16;;;;;;;5.40;4.63;;;2.80;99.90;;;;;;4922563;29;20215;-61
2022/01/26 04:41:51;;;;;;;6.03;5.10;;;2.90;99.90;;;;;;4925569;29;20206;-62
2022/01/26 04:44:26;;;;;;;8.13;5.38;;;2.90;99.90;;;;;;4925356;29;20226;-62
2022/01/26 04:46:57;;;;;;;7.45;5.45;;;2.80;99.90;;;;;;4914100;29;20227;-62
2022/01/26 04:49:28;;;;;;;6.53;4.95;;;2.80;99.90;;;;;;4924314;29;20270;-62
2022/01/26 04:51:59;;;;;;;7.25;4.75;;;2.90;99.90;;;;;;4922532;29;20266;-62
2022/01/26 04:54:33;;;;;;;6.18;4.57;;;2.90;99.90;;;;;;4915916;29;20227;-61
2022/01/26 04:57:03;;;;;;;7.15;5.40;;;2.80;99.90;;;;;;4922279;29;20217;-62
2022/01/26 04:59:36;;;;;;;6.82;4.57;;;2.70;99.90;;;;;;4922306;29;20203;-62
2022/01/26 05:02:07;;;;;;;6.47;5.15;;;2.80;99.90;;;;;;4924688;29;20203;-60
2022/01/26 05:04:38;;;;;;;6.32;4.82;;;2.80;99.90;;;;;;4920255;29;20245;-61
2022/01/26 05:07:09;;;;;;;6.28;4.97;;;2.80;99.90;;;;;;4914365;29;20203;-61
2022/01/26 05:09:41;;;;;;;6.57;4.82;;;2.80;99.90;;;;;;4921436;29;20206;-60
2022/01/26 05:12:13;;;;;;;6.50;4.35;;;2.80;99.90;;;;;;4910330;29;20209;-61
2022/01/26 05:14:47;;;;;;;5.07;4.53;;;2.70;99.90;;;;;;4920997;29;20210;-60
2022/01/26 05:17:20;;;;;;;5.75;5.07;;;2.60;99.90;;;;;;4919603;29;20208;-59
2022/01/26 05:19:56;;;;;;;6.30;4.57;;;2.60;99.90;;;;;;4914947;29;20229;-60
2022/01/26 05:22:27;;;;;;;5.97;4.00;;;2.60;99.90;;;;;;4915248;29;20293;-60
2022/01/26 05:24:58;;;;;;;5.65;4.88;;;2.60;99.90;;;;;;4910208;29;20214;-60
2022/01/26 05:27:29;;;;;;;6.80;4.22;;;2.50;99.90;;;;;;4920422;29;20285;-60
2022/01/26 05:30:02;;;;;;;5.45;4.45;;;2.40;99.90;;;;;;4922462;29;20537;-61
2022/01/26 05:32:33;;;;;;;6.35;5.03;;;2.40;99.90;;;;;;4914552;29;20210;-60
2022/01/26 05:35:04;;;;;;;7.57;5.03;;;2.40;99.90;;;;;;4909131;29;20232;-60
2022/01/26 05:37:35;;;;;;;6.20;4.13;;;2.40;99.90;;;;;;4922594;29;20217;-60
2022/01/26 05:40:11;;;;;;;5.47;4.30;;;2.40;99.90;;;;;;4918648;29;20226;-60
2022/01/26 05:42:42;;;;;;;6.28;4.65;;;2.40;99.90;;;;;;4915478;29;20206;-61
2022/01/26 05:45:29;;;;;;;6.07;5.03;;;2.40;99.90;;;;;;4923188;29;20199;-61
2022/01/26 05:48:02;;;;;;;5.13;4.10;;;2.50;99.90;;;;;;4914113;29;20206;-61
2022/01/26 05:50:33;;;;;;;7.65;5.30;;;2.50;99.90;;;;;;4921176;29;20933;-61
2022/01/26 05:53:24;;;;;;;6.93;4.45;;;2.50;99.90;;;;;;4923281;29;20207;-63
2022/01/26 05:55:56;;;;;;;5.18;4.68;;;2.50;99.90;;;;;;4911408;29;20667;-61
2022/01/26 05:58:27;;;;;;;7.60;5.20;;;2.40;99.90;;;;;;4917748;29;20229;-61
2022/01/26 06:01:00;;;;;;;5.22;4.72;;;2.40;99.90;;;;;;4913552;29;20202;-61
2022/01/26 06:03:32;;;;;;;5.20;4.38;;;2.40;99.90;;;;;;4924492;29;20231;-61
2022/01/26 06:06:03;;;;;;;7.90;4.45;;;2.40;99.90;;;;;;4916274;29;20191;-61
2022/01/26 06:08:37;;;;;;;5.80;4.25;;;2.60;99.90;;;;;;4926314;29;20224;-61
2022/01/26 06:11:08;;;;;;;6.50;4.65;;;2.60;99.90;;;;;;4924105;29;20210;-61
2022/01/26 06:13:39;;;;;;;5.72;4.47;;;2.50;99.90;;;;;;4924332;29;20212;-61
2022/01/26 06:16:11;;;;;;;5.47;4.25;;;2.50;99.90;;;;;;4918422;29;20326;-61
2022/01/26 06:18:43;;;;;;;6.40;4.35;;;2.40;99.90;;;;;;4913165;29;20265;-62
2022/01/26 06:21:14;;;;;;;6.95;5.15;;;2.40;99.90;;;;;;4908769;29;20290;-61
2022/01/26 06:23:45;;;;;;;6.05;4.65;;;2.40;99.90;;;;;;4919640;29;20217;-61
2022/01/26 06:26:16;;;;;;;7.50;5.40;;;2.50;99.90;;;;;;4920273;29;20506;-61
2022/01/26 06:28:47;;;;;;;6.25;4.65;;;2.60;99.90;;;;;;4924831;29;20279;-61
2022/01/26 06:31:19;;;;;;;5.63;5.00;;;2.70;99.90;;;;;;4911206;29;20211;-62
2022/01/26 06:33:50;;;;;;;5.85;4.13;;;2.70;99.90;;;;;;4922089;29;20207;-60
2022/01/26 06:36:21;;;;;;;7.25;5.43;;;2.80;99.90;;;;;;4925663;29;20554;-61
2022/01/26 06:38:52;;;;;;;6.85;5.32;;;2.80;99.90;;;;;;4915370;29;20547;-61
2022/01/26 06:41:26;;;;;;;4.95;4.45;;;2.80;99.90;;;;;;4922536;29;20206;-61
2022/01/26 06:44:03;;;;;;;5.82;4.65;;;2.90;99.90;;;;;;4917998;29;20217;-61
2022/01/26 06:46:47;;;;;;;7.82;5.63;;;2.90;99.90;;;;;;4920589;29;20237;-61
2022/01/26 06:49:30;;;;;;;5.63;4.32;;;2.90;99.90;;;;;;4915537;29;20203;-61
2022/01/26 06:52:01;;;;;;;6.90;5.18;;;2.80;99.90;;;;;;4917016;29;20282;-61
2022/01/26 06:54:31;;;;;;;6.82;5.05;;;2.80;99.90;;;;;;4914690;29;20516;-61
2022/01/26 06:57:02;;;;;;;6.70;4.30;;;2.80;99.90;;;;;;4923173;29;20233;-61
2022/01/26 06:59:33;;;;;;;5.72;4.60;;;2.70;99.90;;;;;;4920169;29;20307;-61
2022/01/26 07:02:06;;;;;;;6.95;5.60;;;2.80;99.90;;;;;;4918898;29;20203;-61
2022/01/26 07:04:37;;;;;;;5.68;4.32;;;2.80;99.90;;;;;;4923597;29;20213;-61
2022/01/26 07:07:07;;;;;;;7.22;5.10;;;2.70;99.90;;;;;;4926214;29;20194;-61
2022/01/26 07:09:38;;;;;;;7.15;5.00;;;2.60;99.90;;;;;;4922816;29;20735;-61
2022/01/26 07:12:11;;;;;;;5.18;4.38;;;2.60;99.90;;;;;;4923903;29;20226;-61
2022/01/26 07:23:24;;;;;;;6.57;4.93;;;2.50;99.90;;;;;;4924916;29;20214;-61
2022/01/26 07:25:54;;;;;;;5.95;5.15;;;2.50;99.90;;;;;;4925451;29;20207;-61
2022/01/26 07:28:27;;;;;;;9.45;6.15;;;2.50;99.90;;;;;;4916145;29;20197;-61
2022/01/26 07:30:58;;;;;;;6.88;5.35;;;2.40;99.90;;;;;;4922931;29;20213;-61
2022/01/26 07:33:30;;;;;;;7.38;6.22;;;2.30;99.90;;;;;;4924244;29;20221;-61
2022/01/26 07:36:01;;;;;;;7.93;6.70;;;2.30;99.90;;;;;;4926097;29;20536;-61
2022/01/26 07:38:32;;;;;;;9.90;7.03;;;2.30;99.90;;;;;;4923307;29;20302;-61
2022/01/26 07:41:03;;;;;;;10.35;7.00;;;2.30;99.90;;;;;;4926833;29;20212;-61
2022/01/26 07:43:36;;;;;;;7.38;5.97;;;2.20;99.90;;;;;;4915259;29;20279;-60
2022/01/26 07:46:10;;;;;;;7.30;5.43;;;2.10;99.90;;;;;;4923894;29;20203;-61
2022/01/26 07:48:43;;;;;;;9.35;6.50;;;2.10;99.90;;;;;;4916118;29;20274;-61
2022/01/26 07:51:14;;;;;;;7.05;5.68;;;2.00;99.90;;;;;;4921228;29;20238;-61
2022/01/26 07:53:45;;;;;;;10.15;6.28;;;2.10;99.90;;;;;;4919780;29;20200;-61
2022/01/26 07:56:16;;;;;;;10.98;7.15;;;2.10;99.90;;;;;;4911297;29;20230;-61
2022/01/26 07:58:48;;;;;;;9.90;7.35;;;2.10;99.90;;;;;;4921787;29;20286;-61
2022/01/26 08:01:19;;;;;;;10.60;7.20;;;2.00;99.90;;;;;;4919593;29;20660;-61
2022/01/26 08:03:52;;;;;;;8.38;7.03;;;2.00;99.90;;;;;;4924577;29;20214;-60
2022/01/26 08:06:23;;;;;;;11.00;7.78;;;2.00;99.90;;;;;;4919484;29;20210;-60
2022/01/26 08:08:54;;;;;;;7.72;6.60;;;2.00;99.90;;;;;;4924801;29;20242;-61
2022/01/26 08:11:26;;;;;;;8.55;6.88;;;1.90;99.90;;;;;;4922793;29;20286;-61
2022/01/26 08:13:58;;;;;;;10.77;8.18;;;1.90;99.90;;;;;;4919987;29;20194;-61
2022/01/26 08:16:28;;;;;;;10.18;7.63;;;1.80;99.90;;;;;;4923756;29;20333;-62
2022/01/26 08:19:01;;;;;;;8.27;6.45;;;1.80;99.90;;;;;;4920056;29;20282;-62
2022/01/26 08:21:32;;;;;;;8.75;6.95;;;1.80;99.90;;;;;;4923532;29;20209;-62
2022/01/26 08:24:12;;;;;;;7.00;6.30;;;1.80;99.90;;;;;;4918662;29;20211;-62
2022/01/26 08:26:46;;;;;;;8.88;7.35;;;1.80;99.90;;;;;;4926495;29;20199;-61
2022/01/26 08:29:21;;;;;;;9.18;7.05;;;1.70;99.90;;;;;;4918459;29;20209;-61
2022/01/26 08:31:52;;;;;;;8.13;6.70;;;1.60;99.90;;;;;;4924079;29;20210;-62
2022/01/26 08:34:25;;;;;;;8.95;7.20;;;1.50;99.90;;;;;;4925896;29;20217;-62
2022/01/26 08:36:55;;;;;;;10.45;6.97;;;1.50;99.90;;;;;;4917859;29;20301;-62
2022/01/26 08:39:26;;;;;;;10.30;7.30;;;1.40;99.90;;;;;;4924244;29;20631;-62
2022/01/26 08:41:57;;;;;;;8.63;6.53;;;1.40;99.90;;;;;;4925432;29;20306;-62
2022/01/26 08:44:28;;;;;;;11.90;6.32;;;1.30;99.90;;;;;;4918990;29;20191;-62
2022/01/26 08:46:59;;;;;;;8.30;6.35;;;1.30;99.90;;;;;;4921303;29;20211;-62
2022/01/26 08:49:32;;;;;;;9.18;6.68;;;1.20;99.90;;;;;;4916627;29;20239;-62
2022/01/26 08:52:04;;;;;;;10.18;7.05;;;1.20;99.90;;;;;;4923873;29;20234;-62
2022/01/26 08:54:37;;;;;;;9.30;8.40;;;1.20;99.90;;;;;;4912697;29;20211;-62
2022/01/26 08:57:08;;;;;;;8.52;6.38;;;1.10;99.90;;;;;;4920400;29;20227;-61
2022/01/26 08:59:40;;;;;;;11.05;7.25;;;1.10;99.90;;;;;;4924817;29;20194;-61
2022/01/26 09:02:11;;;;;;;13.10;7.15;;;1.00;99.90;;;;;;4922952;29;20260;-62
2022/01/26 09:04:44;;;;;;;9.02;6.47;;;1.00;99.90;;;;;;4924078;29;20722;-62
2022/01/26 09:07:15;;;;;;;10.68;7.07;;;1.00;99.90;;;;;;4923309;29;20202;-62
2022/01/26 09:09:46;;;;;;;9.55;7.00;;;1.00;99.90;;;;;;4921333;29;20278;-61
2022/01/26 09:12:19;;;;;;;8.07;6.95;;;0.90;99.90;;;;;;4917228;29;20214;-62
2022/01/26 09:14:50;;;;;;;10.15;7.03;;;1.00;99.90;;;;;;4924268;29;20206;-62
2022/01/26 09:17:23;;;;;;;9.65;7.40;;;0.80;99.90;;;;;;4921769;29;20235;-62
2022/01/26 09:19:58;;;;;;;8.70;6.95;;;0.80;99.90;;;;;;4925523;29;20211;-62
2022/01/26 09:22:29;;;;;;;13.15;7.35;;;0.70;99.90;;;;;;4922795;29;20198;-61
2022/01/26 09:25:00;;;;;;;11.38;7.53;;;0.60;99.90;;;;;;4912225;29;20211;-62
2022/01/26 09:27:31;;;;;;;9.20;6.50;;;0.60;99.90;;;;;;4911830;29;20302;-60
2022/01/26 09:30:02;;;;;;;11.65;8.18;;;0.50;99.90;;;;;;4921467;29;20249;-61
2022/01/26 09:32:37;;;;;;;10.15;7.35;;;0.50;99.90;;;;;;4914878;29;22317;-62
2022/01/26 09:35:13;;;;;;;10.30;7.18;;;0.40;99.90;;;;;;4921848;29;20198;-60
2022/01/26 09:37:43;;;;;;;9.07;7.00;;;0.40;99.90;;;;;;4922121;29;20230;-61
2022/01/26 09:40:14;;;;;;;10.30;7.25;;;0.50;99.90;;;;;;4914390;29;20215;-61
2022/01/26 09:42:46;;;;;;;13.32;8.40;;;0.50;99.90;;;;;;4915126;29;20198;-61
2022/01/26 09:45:17;;;;;;;9.43;6.97;;;0.40;99.90;;;;;;4911996;29;20515;-61
2022/01/26 09:47:48;;;;;;;11.02;7.97;;;0.30;99.90;;;;;;4922871;29;20207;-61
2022/01/26 09:50:36;;;;;;;10.60;7.63;;;0.20;99.90;;;;;;4920251;29;20241;-61
2022/01/26 09:53:07;;;;;;;8.98;6.70;;;0.20;99.90;;;;;;4923827;29;20304;-60
2022/01/26 09:55:43;;;;;;;10.98;7.55;;;0.20;99.90;;;;;;4923023;29;20198;-61
2022/01/26 09:58:16;;;;;;;9.52;7.03;;;0.20;99.90;;;;;;4915360;29;20230;-61
2022/01/26 10:00:47;;;;;;;11.38;7.60;;;0.30;99.90;;;;;;4921549;29;20599;-61
2022/01/26 10:03:30;;;;;;;15.55;8.48;;;0.20;99.90;;;;;;4918805;29;20666;-61
2022/01/26 10:06:04;;;;;;;11.77;8.05;;;0.20;99.90;;;;;;4920771;29;20277;-61
2022/01/26 10:08:59;;;;;;;11.98;7.22;;;0.20;99.90;;;;;;4917900;29;20214;-61
2022/01/26 10:17:24;;;;;;;11.32;7.80;;;0.10;99.90;;;;;;4921111;29;20225;-60
2022/01/26 10:19:59;;;;;;;10.95;7.78;;;0.00;99.90;;;;;;4918307;29;20207;-60
2022/01/26 10:22:33;;;;;;;9.38;7.30;;;0.00;99.90;;;;;;4920616;29;20284;-60
2022/01/26 10:25:12;;;;;;;12.40;8.13;;;-0.10;99.90;;;;;;4913156;29;20220;-61
2022/01/26 10:28:03;;;;;;;12.32;8.27;;;-0.10;99.90;;;;;;4925368;29;20277;-60
2022/01/26 10:30:35;;;;;;;10.00;7.72;;;0.00;99.90;;;;;;4912686;29;20584;-60
2022/01/26 10:33:09;;;;;;;9.38;7.72;;;0.00;99.90;;;;;;4919763;29;20198;-60
2022/01/26 10:35:41;;;;;;;12.27;8.52;;;-0.20;99.90;;;;;;4922984;29;20210;-60
2022/01/26 10:38:15;;;;;;;10.88;8.10;;;-0.20;99.90;;;;;;4916783;29;20305;-60
2022/01/26 10:40:46;;;;;;;14.95;9.10;;;-0.10;99.90;;;;;;4909568;29;20234;-60
2022/01/26 10:43:17;;;;;;;12.65;9.35;;;-0.20;99.90;;;;;;4923299;29;20281;-60
2022/01/26 10:45:56;;;;;;;12.80;9.80;;;-0.10;99.90;;;;;;4923343;29;20582;-60
2022/01/26 10:48:36;;;;;;;15.02;9.60;;;-0.10;99.90;;;;;;4925304;29;20214;-60
2022/01/26 10:51:39;;;;;;;18.58;10.35;;;-0.20;99.90;;;;;;4927275;29;20313;-60
2022/01/26 10:54:22;;;;;;;15.20;10.90;;;-0.20;99.90;;;;;;4921025;29;20233;-61
2022/01/26 10:56:53;;;;;;;15.13;10.25;;;-0.20;99.90;;;;;;4920495;29;20199;-59
2022/01/26 10:59:24;;;;;;;14.43;9.95;;;-0.30;99.90;;;;;;4915904;29;20235;-60
2022/01/26 11:01:59;;;;;;;14.65;10.95;;;-0.30;99.90;;;;;;4922074;29;20191;-60
2022/01/26 11:04:30;;;;;;;13.52;10.10;;;-0.30;99.90;;;;;;4925594;29;20232;-60
2022/01/26 11:07:02;;;;;;;14.40;10.52;;;-0.40;99.90;;;;;;4921176;29;20207;-60
2022/01/26 11:09:37;;;;;;;16.15;10.48;;;-0.30;99.90;;;;;;4921521;29;20200;-60
2022/01/26 11:12:14;;;;;;;14.02;10.00;;;-0.30;99.90;;;;;;4915217;29;20245;-60
2022/01/26 11:14:46;;;;;;;16.10;11.13;;;-0.30;99.90;;;;;;4914201;29;20203;-60
2022/01/26 11:17:29;;;;;;;17.75;11.88;;;-0.40;99.90;;;;;;4915396;29;20210;-60
2022/01/26 11:20:02;;;;;;;16.67;10.75;;;-0.40;99.90;;;;;;4911434;29;20307;-61
2022/01/26 11:22:33;;;;;;;16.65;10.98;;;-0.40;99.90;;;;;;4913459;29;20510;-60
2022/01/26 11:25:13;;;;;;;19.50;11.55;;;-0.40;99.90;;;;;;4924177;29;20207;-60
2022/01/26 11:27:46;;;;;;;13.80;11.63;;;-0.50;99.90;;;;;;4922794;29;20207;-60
2022/01/26 11:30:21;;;;;;;17.33;11.40;;;-0.50;99.90;;;;;;4920809;29;20309;-60
2022/01/26 11:32:53;;;;;;;20.45;13.20;;;-0.50;99.90;;;;;;4924584;29;20230;-60
2022/01/26 11:35:26;;;;;;;15.38;11.85;;;-0.50;99.90;;;;;;4923688;29;20213;-61
2022/01/26 11:38:12;;;;;;;17.05;11.75;;;-0.50;99.90;;;;;;4913145;29;20234;-60
2022/01/26 11:46:32;;;;;;;16.67;11.20;;;-0.60;99.90;;;;;;4927881;29;20298;-60
2022/01/26 11:49:08;;;;;;;14.27;10.23;;;-0.70;99.90;;;;;;4921872;29;20207;-61
2022/01/26 11:51:43;;;;;;;15.43;10.88;;;-0.60;99.90;;;;;;4924660;29;20269;-60
2022/01/26 11:54:16;;;;;;;16.52;10.77;;;-0.70;99.90;;;;;;4916825;29;20213;-60
2022/01/26 11:57:04;;;;;;;14.88;11.18;;;-0.70;99.90;;;;;;4921622;29;20192;-60
2022/01/26 11:59:38;;;;;;;17.05;11.07;;;-0.60;99.90;;;;;;4913825;29;20399;-60
2022/01/26 12:02:31;;;;;;;13.02;10.80;;;-0.60;99.90;;;;;;4925411;29;20294;-60
2022/01/26 12:05:06;;;;;;;13.32;10.30;;;-0.60;99.90;;;;;;4914253;29;20206;-60
2022/01/26 12:07:47;;;;;;;16.30;10.77;;;-0.70;99.90;;;;;;4917555;29;20198;-60
2022/01/26 12:10:24;;;;;;;14.70;11.50;;;-0.70;99.90;;;;;;4922555;29;20225;-60
2022/01/26 12:13:04;;;;;;;13.90;11.43;;;-0.70;99.90;;;;;;4923676;29;20659;-60
2022/01/26 12:15:42;;;;;;;13.50;10.15;;;-0.60;99.90;;;;;;4920713;29;20207;-60
2022/01/26 12:18:23;;;;;;;12.95;10.63;;;-0.70;99.90;;;;;;4919894;29;20315;-59
2022/01/26 12:32:59;;;;;;;23.70;11.63;;;-0.50;99.90;;;;;;4910718;29;20218;-60
2022/01/26 12:35:43;;;;;;;18.50;10.73;;;-0.50;99.90;;;;;;4922388;29;20663;-59
2022/01/26 12:38:25;;;;;;;12.25;10.48;;;-0.50;99.90;;;;;;4922030;29;20274;-61
2022/01/26 12:41:19;;;;;;;23.65;13.30;;;-0.40;99.90;;;;;;4910735;29;20225;-60
2022/01/26 12:43:53;;;;;;;35.35;12.88;;;-0.30;99.90;;;;;;4921732;29;20238;-60
2022/01/26 12:46:28;;;;;;;29.77;12.13;;;-0.20;99.90;;;;;;4925180;29;20206;-60
2022/01/26 12:49:00;;;;;;;39.20;13.30;;;-0.10;99.90;;;;;;4915506;29;20194;-60
2022/01/26 12:51:32;;;;;;;27.80;12.48;;;-0.10;99.90;;;;;;4924250;29;20296;-60
2022/01/26 12:54:04;;;;;;;30.55;13.35;;;0.00;99.90;;;;;;4921051;29;20203;-60
2022/01/26 12:56:35;;;;;;;15.13;11.02;;;0.10;99.90;;;;;;4918482;29;20242;-60
2022/01/26 12:59:08;;;;;;;28.38;13.18;;;0.00;99.90;;;;;;4921387;29;20318;-60
2022/01/26 13:01:42;;;;;;;718.40;142.75;;;0.10;99.90;;;;;;4921139;29;20616;-61
2022/01/26 13:04:15;;;;;;;65.35;18.90;;;0.20;99.90;;;;;;4925872;29;20195;-60
2022/01/26 13:06:51;;;;;;;1594.95;256.88;;;0.20;99.90;;;;;;4916605;29;20214;-60
2022/01/26 13:09:26;;;;;;;76.72;17.00;;;0.30;99.90;;;;;;4923852;29;20300;-61
2022/01/26 13:11:58;;;;;;;65.35;15.45;;;0.30;99.90;;;;;;4919178;29;20267;-60
2022/01/26 13:14:33;;;;;;;33.40;12.13;;;0.20;99.90;;;;;;4925114;29;20206;-60
2022/01/26 13:17:14;;;;;;;63.42;17.92;;;0.30;99.90;;;;;;4922180;29;20212;-60
2022/01/26 13:19:59;;;;;;;63.65;16.50;;;0.30;99.90;;;;;;4925324;29;20670;-60
2022/01/26 13:22:48;;;;;;;130.05;20.27;;;0.20;99.90;;;;;;4918255;29;20215;-60
2022/01/26 13:25:47;;;;;;;65.82;15.65;;;0.20;99.90;;;;;;4918609;29;20289;-60
2022/01/26 13:28:27;;;;;;;48.47;14.93;;;0.20;99.90;;;;;;4912832;29;20302;-60
2022/01/26 13:31:48;;;;;;;33.38;11.85;;;0.20;99.90;;;;;;4916016;29;20561;-60
2022/01/26 13:34:48;;;;;;;38.75;14.25;;;0.20;99.90;;;;;;4909163;29;20692;-60
2022/01/26 13:37:29;;;;;;;77.75;15.35;;;0.20;99.90;;;;;;4910706;29;20203;-60
2022/01/26 13:40:15;;;;;;;57.08;14.43;;;0.20;99.90;;;;;;4918017;29;20235;-60
2022/01/26 13:46:13;;;;;;;100.53;18.50;;;0.20;99.90;;;;;;4921482;29;20226;-60
2022/01/26 13:49:17;;;;;;;82.50;16.88;;;0.30;99.90;;;;;;4912846;29;20207;-61
2022/01/26 13:52:02;;;;;;;1086.13;186.27;;;0.20;99.90;;;;;;4917109;29;20217;-61
2022/01/26 13:54:54;;;;;;;1704.20;301.33;;;0.20;99.90;;;;;;4915333;29;20554;-60
2022/01/26 14:00:15;;;;;;;39.17;14.07;;;0.50;99.90;;;;;;4924429;29;20244;-60
2022/01/26 14:02:48;;;;;;;42.58;16.38;;;0.50;99.90;;;;;;4915390;29;20249;-60
2022/01/26 14:05:19;;;;;;;74.53;17.30;;;0.40;99.90;;;;;;4913267;29;20211;-61
2022/01/26 14:07:56;;;;;;;83.18;18.55;;;0.30;99.90;;;;;;4915432;29;20647;-60
2022/01/26 14:10:27;;;;;;;52.25;15.43;;;0.20;99.90;;;;;;4921546;29;20209;-61
2022/01/26 14:12:58;;;;;;;36.70;15.18;;;0.30;99.90;;;;;;4918540;29;20229;-61
2022/01/26 14:15:39;;;;;;;35.03;13.55;;;0.30;99.90;;;;;;4916693;29;20207;-61
2022/01/26 14:18:35;;;;;;;31.58;13.30;;;0.20;99.90;;;;;;4918526;29;20206;-60
2022/01/26 14:21:23;;;;;;;35.80;13.15;;;0.20;99.90;;;;;;4917491;29;20239;-60
2022/01/26 14:26:49;;;;;;;49.72;13.00;;;0.20;99.90;;;;;;4927596;29;20210;-60
2022/01/26 14:29:31;;;;;;;28.13;11.80;;;0.20;99.90;;;;;;4930082;29;20329;-60
2022/01/26 14:32:20;;;;;;;52.95;13.75;;;0.20;99.90;;;;;;4924622;29;20211;-60
2022/01/26 14:40:54;;;;;;;570.85;87.95;;;0.30;99.90;;;;;;4926158;29;20226;-60
2022/01/26 14:52:16;;;;;;;38.17;14.57;;;0.30;99.90;;;;;;4892395;29;20228;-60
2022/01/26 14:54:56;;;;;;;47.13;13.45;;;0.20;99.90;;;;;;4885727;29;20227;-60
2022/01/26 15:00:46;;;;;;;74.97;18.48;;;0.20;99.90;;;;;;4890410;29;20263;-61
2022/01/26 15:09:21;;;;;;;74.80;19.75;;;0.20;99.90;;;;;;4891428;29;20210;-61
2022/01/26 15:40:27;;;;;;;1539.63;261.00;;;0.50;99.90;;;;;;4863857;29;20609;-63
2022/01/26 15:43:35;;;;;;;43.40;20.40;;;0.60;99.90;;;;;;4867518;29;20205;-62
2022/01/26 15:52:01;;;;;;;65.20;23.80;;;0.70;99.90;;;;;;4885352;29;20212;-61
2022/01/26 16:06:05;;;;;;;48.67;16.67;;;0.80;99.90;;;;;;4887134;29;20308;-61
2022/01/26 16:20:11;;;;;;;424.30;71.60;;;1.00;99.90;;;;;;4895117;29;20204;-62
2022/01/26 17:03:30;;;;;;;19.95;12.77;;;1.60;99.90;;;;;;4922737;29;20198;-60
2022/01/26 17:11:44;;;;;;;889.28;173.35;;;2.20;99.90;;;;;;4924503;29;20194;-61
2022/01/26 17:37:48;;;;;;;15.88;12.55;;;2.40;99.90;;;;;;4843637;29;20273;-60
2022/01/26 18:17:19;;;;;;;16.73;12.30;;;6.60;99.90;;;;;;4867418;29;20283;-61
2022/01/26 18:25:59;;;;;;;40.65;18.42;;;6.20;99.90;;;;;;4926545;29;20206;-61
2022/01/26 18:51:36;;;;;;;18.58;13.65;;;6.30;99.90;;;;;;4924674;29;20696;-61
2022/01/26 18:54:08;;;;;;;20.38;14.10;;;6.20;99.90;;;;;;4916065;29;20203;-61
2022/01/26 18:56:41;;;;;;;20.38;13.80;;;6.10;99.90;;;;;;4906665;29;20215;-61